sensor_id;sensor_type;location;lat;lon;timestamp;P1;durP1;ratioP1;P2;durP2;ratioP2
35606;SDS011;21729;58.392;15.656;2023-04-15T00:02:19;10.68;;;4.55;;
35606;SDS011;21729;58.392;15.656;2023-04-15T00:04:48;11.18;;;4.78;;
35606;SDS011;21729;58.392;15.656;2023-04-15T00:07:15;9.57;;;4.53;;
35606;SDS011;21729;58.392;15.656;2023-04-15T00:09:42;9.00;;;4.43;;
35606;SDS011;21729;58.392;15.656;2023-04-15T00:12:10;10.45;;;4.63;;
35606;SDS011;21729;58.392;15.656;2023-04-15T00:14:38;11.55;;;4.75;;
35606;SDS011;21729;58.392;15.656;2023-04-15T00:17:05;13.60;;;4.78;;
35606;SDS011;21729;58.392;15.656;2023-04-15T00:19:32;11.85;;;4.93;;
35606;SDS011;21729;58.392;15.656;2023-04-15T00:22:01;10.30;;;4.35;;
35606;SDS011;21729;58.392;15.656;2023-04-15T00:24:28;11.98;;;4.22;;
35606;SDS011;21729;58.392;15.656;2023-04-15T00:26:55;12.52;;;4.63;;
35606;SDS011;21729;58.392;15.656;2023-04-15T00:29:24;9.13;;;4.30;;
35606;SDS011;21729;58.392;15.656;2023-04-15T00:31:51;11.90;;;4.90;;
35606;SDS011;21729;58.392;15.656;2023-04-15T00:34:18;9.50;;;4.30;;
35606;SDS011;21729;58.392;15.656;2023-04-15T00:36:45;8.95;;;4.38;;
35606;SDS011;21729;58.392;15.656;2023-04-15T00:39:14;8.30;;;4.35;;
35606;SDS011;21729;58.392;15.656;2023-04-15T00:41:41;9.60;;;4.40;;
35606;SDS011;21729;58.392;15.656;2023-04-15T00:44:09;10.43;;;4.50;;
35606;SDS011;21729;58.392;15.656;2023-04-15T00:46:37;8.48;;;4.60;;
35606;SDS011;21729;58.392;15.656;2023-04-15T00:49:05;10.20;;;4.47;;
35606;SDS011;21729;58.392;15.656;2023-04-15T00:51:32;9.67;;;4.43;;
35606;SDS011;21729;58.392;15.656;2023-04-15T00:54:01;11.90;;;4.78;;
35606;SDS011;21729;58.392;15.656;2023-04-15T00:56:30;10.05;;;4.75;;
35606;SDS011;21729;58.392;15.656;2023-04-15T00:59:02;11.45;;;5.10;;
35606;SDS011;21729;58.392;15.656;2023-04-15T01:01:30;10.32;;;5.07;;
35606;SDS011;21729;58.392;15.656;2023-04-15T01:03:59;13.52;;;4.57;;
35606;SDS011;21729;58.392;15.656;2023-04-15T01:06:26;11.82;;;4.70;;
35606;SDS011;21729;58.392;15.656;2023-04-15T01:08:54;11.82;;;4.78;;
35606;SDS011;21729;58.392;15.656;2023-04-15T01:11:22;9.85;;;4.60;;
35606;SDS011;21729;58.392;15.656;2023-04-15T01:13:51;10.00;;;4.78;;
35606;SDS011;21729;58.392;15.656;2023-04-15T01:16:20;12.25;;;4.50;;
35606;SDS011;21729;58.392;15.656;2023-04-15T01:18:48;10.05;;;4.63;;
35606;SDS011;21729;58.392;15.656;2023-04-15T01:21:16;9.38;;;4.82;;
35606;SDS011;21729;58.392;15.656;2023-04-15T01:23:44;9.02;;;4.78;;
35606;SDS011;21729;58.392;15.656;2023-04-15T01:26:14;10.65;;;4.30;;
35606;SDS011;21729;58.392;15.656;2023-04-15T01:28:42;8.45;;;4.10;;
35606;SDS011;21729;58.392;15.656;2023-04-15T01:31:10;8.05;;;4.43;;
35606;SDS011;21729;58.392;15.656;2023-04-15T01:33:38;9.70;;;4.45;;
35606;SDS011;21729;58.392;15.656;2023-04-15T01:36:07;10.70;;;4.70;;
35606;SDS011;21729;58.392;15.656;2023-04-15T01:38:35;12.13;;;4.60;;
35606;SDS011;21729;58.392;15.656;2023-04-15T01:41:03;8.37;;;4.40;;
35606;SDS011;21729;58.392;15.656;2023-04-15T01:43:33;9.40;;;4.57;;
35606;SDS011;21729;58.392;15.656;2023-04-15T01:46:00;9.00;;;4.70;;
35606;SDS011;21729;58.392;15.656;2023-04-15T01:48:27;8.27;;;4.50;;
35606;SDS011;21729;58.392;15.656;2023-04-15T01:50:54;13.15;;;4.70;;
35606;SDS011;21729;58.392;15.656;2023-04-15T01:53:22;8.98;;;4.70;;
35606;SDS011;21729;58.392;15.656;2023-04-15T01:55:50;11.68;;;4.75;;
35606;SDS011;21729;58.392;15.656;2023-04-15T01:58:17;8.80;;;4.43;;
35606;SDS011;21729;58.392;15.656;2023-04-15T02:00:47;8.85;;;4.00;;
35606;SDS011;21729;58.392;15.656;2023-04-15T02:03:14;8.82;;;4.40;;
35606;SDS011;21729;58.392;15.656;2023-04-15T02:05:42;9.23;;;4.03;;
35606;SDS011;21729;58.392;15.656;2023-04-15T02:08:09;10.18;;;4.40;;
35606;SDS011;21729;58.392;15.656;2023-04-15T02:10:36;9.20;;;4.38;;
35606;SDS011;21729;58.392;15.656;2023-04-15T02:13:03;8.77;;;4.20;;
35606;SDS011;21729;58.392;15.656;2023-04-15T02:15:31;10.10;;;3.85;;
35606;SDS011;21729;58.392;15.656;2023-04-15T02:18:00;11.35;;;4.50;;
35606;SDS011;21729;58.392;15.656;2023-04-15T02:20:27;10.43;;;4.00;;
35606;SDS011;21729;58.392;15.656;2023-04-15T02:22:54;11.35;;;3.60;;
35606;SDS011;21729;58.392;15.656;2023-04-15T02:25:22;6.72;;;3.88;;
35606;SDS011;21729;58.392;15.656;2023-04-15T02:27:49;9.68;;;4.30;;
35606;SDS011;21729;58.392;15.656;2023-04-15T02:30:17;7.97;;;3.70;;
35606;SDS011;21729;58.392;15.656;2023-04-15T02:32:44;8.82;;;3.65;;
35606;SDS011;21729;58.392;15.656;2023-04-15T02:35:13;10.23;;;3.90;;
35606;SDS011;21729;58.392;15.656;2023-04-15T02:37:43;9.23;;;4.10;;
35606;SDS011;21729;58.392;15.656;2023-04-15T02:40:11;7.27;;;3.80;;
35606;SDS011;21729;58.392;15.656;2023-04-15T02:42:38;9.82;;;3.92;;
35606;SDS011;21729;58.392;15.656;2023-04-15T02:45:06;9.93;;;4.07;;
35606;SDS011;21729;58.392;15.656;2023-04-15T02:47:33;9.40;;;3.80;;
35606;SDS011;21729;58.392;15.656;2023-04-15T02:50:01;9.02;;;3.20;;
35606;SDS011;21729;58.392;15.656;2023-04-15T02:52:30;10.57;;;3.88;;
35606;SDS011;21729;58.392;15.656;2023-04-15T02:54:57;8.25;;;3.65;;
35606;SDS011;21729;58.392;15.656;2023-04-15T02:57:26;9.00;;;3.58;;
35606;SDS011;21729;58.392;15.656;2023-04-15T02:59:53;9.15;;;3.60;;
35606;SDS011;21729;58.392;15.656;2023-04-15T03:02:21;7.18;;;3.40;;
35606;SDS011;21729;58.392;15.656;2023-04-15T03:04:48;5.93;;;3.40;;
35606;SDS011;21729;58.392;15.656;2023-04-15T03:07:16;7.43;;;3.40;;
35606;SDS011;21729;58.392;15.656;2023-04-15T03:09:45;5.95;;;3.33;;
35606;SDS011;21729;58.392;15.656;2023-04-15T03:12:12;7.78;;;3.55;;
35606;SDS011;21729;58.392;15.656;2023-04-15T03:14:39;8.98;;;3.40;;
35606;SDS011;21729;58.392;15.656;2023-04-15T03:17:06;8.50;;;3.43;;
35606;SDS011;21729;58.392;15.656;2023-04-15T03:19:33;8.43;;;3.63;;
35606;SDS011;21729;58.392;15.656;2023-04-15T03:22:00;10.43;;;3.35;;
35606;SDS011;21729;58.392;15.656;2023-04-15T03:24:28;7.45;;;3.67;;
35606;SDS011;21729;58.392;15.656;2023-04-15T03:26:57;7.25;;;3.30;;
35606;SDS011;21729;58.392;15.656;2023-04-15T03:29:24;7.65;;;3.60;;
35606;SDS011;21729;58.392;15.656;2023-04-15T03:31:51;7.15;;;3.40;;
35606;SDS011;21729;58.392;15.656;2023-04-15T03:34:18;7.65;;;3.50;;
35606;SDS011;21729;58.392;15.656;2023-04-15T03:36:46;7.80;;;3.08;;
35606;SDS011;21729;58.392;15.656;2023-04-15T03:39:13;7.47;;;3.53;;
35606;SDS011;21729;58.392;15.656;2023-04-15T03:41:40;6.38;;;3.33;;
35606;SDS011;21729;58.392;15.656;2023-04-15T03:44:09;6.95;;;3.30;;
35606;SDS011;21729;58.392;15.656;2023-04-15T03:46:36;8.40;;;3.47;;
35606;SDS011;21729;58.392;15.656;2023-04-15T03:49:05;4.97;;;2.87;;
35606;SDS011;21729;58.392;15.656;2023-04-15T03:51:32;9.43;;;3.15;;
35606;SDS011;21729;58.392;15.656;2023-04-15T03:53:59;5.70;;;2.90;;
35606;SDS011;21729;58.392;15.656;2023-04-15T03:56:26;8.25;;;3.25;;
35606;SDS011;21729;58.392;15.656;2023-04-15T03:58:53;4.47;;;3.03;;
35606;SDS011;21729;58.392;15.656;2023-04-15T04:01:22;5.47;;;3.27;;
35606;SDS011;21729;58.392;15.656;2023-04-15T04:03:49;7.25;;;3.33;;
35606;SDS011;21729;58.392;15.656;2023-04-15T04:06:17;6.25;;;3.25;;
35606;SDS011;21729;58.392;15.656;2023-04-15T04:08:44;7.20;;;3.30;;
35606;SDS011;21729;58.392;15.656;2023-04-15T04:11:11;8.50;;;3.77;;
35606;SDS011;21729;58.392;15.656;2023-04-15T04:13:38;8.00;;;3.40;;
35606;SDS011;21729;58.392;15.656;2023-04-15T04:16:05;6.80;;;3.45;;
35606;SDS011;21729;58.392;15.656;2023-04-15T04:18:34;8.57;;;3.67;;
35606;SDS011;21729;58.392;15.656;2023-04-15T04:21:01;9.43;;;3.73;;
35606;SDS011;21729;58.392;15.656;2023-04-15T04:23:28;8.10;;;3.60;;
35606;SDS011;21729;58.392;15.656;2023-04-15T04:25:55;7.78;;;3.67;;
35606;SDS011;21729;58.392;15.656;2023-04-15T04:28:23;7.22;;;3.55;;
35606;SDS011;21729;58.392;15.656;2023-04-15T04:30:50;7.57;;;4.28;;
35606;SDS011;21729;58.392;15.656;2023-04-15T04:33:17;8.05;;;3.58;;
35606;SDS011;21729;58.392;15.656;2023-04-15T04:35:45;8.55;;;3.88;;
35606;SDS011;21729;58.392;15.656;2023-04-15T04:38:12;8.70;;;3.63;;
35606;SDS011;21729;58.392;15.656;2023-04-15T04:40:39;6.45;;;3.85;;
35606;SDS011;21729;58.392;15.656;2023-04-15T04:43:07;6.22;;;3.30;;
35606;SDS011;21729;58.392;15.656;2023-04-15T04:45:34;6.65;;;3.38;;
35606;SDS011;21729;58.392;15.656;2023-04-15T04:48:01;9.90;;;3.65;;
35606;SDS011;21729;58.392;15.656;2023-04-15T04:50:31;7.03;;;3.40;;
35606;SDS011;21729;58.392;15.656;2023-04-15T04:52:59;6.68;;;3.50;;
35606;SDS011;21729;58.392;15.656;2023-04-15T04:55:27;6.97;;;3.33;;
35606;SDS011;21729;58.392;15.656;2023-04-15T04:57:54;6.10;;;3.50;;
35606;SDS011;21729;58.392;15.656;2023-04-15T05:00:21;4.63;;;2.75;;
35606;SDS011;21729;58.392;15.656;2023-04-15T05:02:48;7.25;;;3.45;;
35606;SDS011;21729;58.392;15.656;2023-04-15T05:05:15;6.85;;;3.55;;
35606;SDS011;21729;58.392;15.656;2023-04-15T05:07:42;7.13;;;3.30;;
35606;SDS011;21729;58.392;15.656;2023-04-15T05:10:11;6.35;;;3.20;;
35606;SDS011;21729;58.392;15.656;2023-04-15T05:12:39;10.10;;;3.47;;
35606;SDS011;21729;58.392;15.656;2023-04-15T05:15:07;7.00;;;3.45;;
35606;SDS011;21729;58.392;15.656;2023-04-15T05:17:35;5.90;;;3.15;;
35606;SDS011;21729;58.392;15.656;2023-04-15T05:20:02;7.72;;;3.10;;
35606;SDS011;21729;58.392;15.656;2023-04-15T05:22:29;6.55;;;3.20;;
35606;SDS011;21729;58.392;15.656;2023-04-15T05:24:56;7.10;;;3.45;;
35606;SDS011;21729;58.392;15.656;2023-04-15T05:27:25;7.03;;;3.40;;
35606;SDS011;21729;58.392;15.656;2023-04-15T05:29:52;9.15;;;3.63;;
35606;SDS011;21729;58.392;15.656;2023-04-15T05:32:20;10.48;;;3.97;;
35606;SDS011;21729;58.392;15.656;2023-04-15T05:34:47;8.82;;;3.60;;
35606;SDS011;21729;58.392;15.656;2023-04-15T05:37:15;7.35;;;3.45;;
35606;SDS011;21729;58.392;15.656;2023-04-15T05:39:45;9.38;;;3.35;;
35606;SDS011;21729;58.392;15.656;2023-04-15T05:42:12;8.25;;;3.28;;
35606;SDS011;21729;58.392;15.656;2023-04-15T05:44:41;5.60;;;3.33;;
35606;SDS011;21729;58.392;15.656;2023-04-15T05:47:08;8.63;;;2.83;;
35606;SDS011;21729;58.392;15.656;2023-04-15T05:49:35;6.18;;;3.15;;
35606;SDS011;21729;58.392;15.656;2023-04-15T05:52:02;8.00;;;3.25;;
35606;SDS011;21729;58.392;15.656;2023-04-15T05:54:30;8.00;;;3.25;;
35606;SDS011;21729;58.392;15.656;2023-04-15T05:56:57;6.03;;;3.10;;
35606;SDS011;21729;58.392;15.656;2023-04-15T05:59:25;6.85;;;3.20;;
35606;SDS011;21729;58.392;15.656;2023-04-15T06:01:53;5.83;;;2.90;;
35606;SDS011;21729;58.392;15.656;2023-04-15T06:04:21;6.68;;;3.00;;
35606;SDS011;21729;58.392;15.656;2023-04-15T06:06:48;6.22;;;2.92;;
35606;SDS011;21729;58.392;15.656;2023-04-15T06:09:15;5.35;;;3.03;;
35606;SDS011;21729;58.392;15.656;2023-04-15T06:11:42;9.40;;;2.97;;
35606;SDS011;21729;58.392;15.656;2023-04-15T06:14:09;5.05;;;2.90;;
35606;SDS011;21729;58.392;15.656;2023-04-15T06:16:36;5.53;;;2.90;;
35606;SDS011;21729;58.392;15.656;2023-04-15T06:19:05;5.63;;;2.70;;
35606;SDS011;21729;58.392;15.656;2023-04-15T06:21:32;4.05;;;2.70;;
35606;SDS011;21729;58.392;15.656;2023-04-15T06:23:59;6.15;;;2.83;;
35606;SDS011;21729;58.392;15.656;2023-04-15T06:26:27;4.70;;;2.80;;
35606;SDS011;21729;58.392;15.656;2023-04-15T06:28:54;4.43;;;2.85;;
35606;SDS011;21729;58.392;15.656;2023-04-15T06:31:21;8.10;;;2.83;;
35606;SDS011;21729;58.392;15.656;2023-04-15T06:33:48;5.00;;;2.70;;
35606;SDS011;21729;58.392;15.656;2023-04-15T06:36:17;8.20;;;3.20;;
35606;SDS011;21729;58.392;15.656;2023-04-15T06:38:44;4.57;;;2.75;;
35606;SDS011;21729;58.392;15.656;2023-04-15T06:41:11;7.45;;;2.83;;
35606;SDS011;21729;58.392;15.656;2023-04-15T06:43:38;5.22;;;2.60;;
35606;SDS011;21729;58.392;15.656;2023-04-15T06:46:05;4.47;;;2.70;;
35606;SDS011;21729;58.392;15.656;2023-04-15T06:48:33;4.50;;;2.83;;
35606;SDS011;21729;58.392;15.656;2023-04-15T06:51:00;4.60;;;2.90;;
35606;SDS011;21729;58.392;15.656;2023-04-15T06:53:29;7.55;;;2.80;;
35606;SDS011;21729;58.392;15.656;2023-04-15T06:55:57;7.38;;;2.90;;
35606;SDS011;21729;58.392;15.656;2023-04-15T06:58:24;5.95;;;2.83;;
35606;SDS011;21729;58.392;15.656;2023-04-15T07:00:51;6.38;;;2.67;;
35606;SDS011;21729;58.392;15.656;2023-04-15T07:03:18;6.53;;;3.00;;
35606;SDS011;21729;58.392;15.656;2023-04-15T07:05:46;4.97;;;2.30;;
35606;SDS011;21729;58.392;15.656;2023-04-15T07:08:13;4.40;;;2.57;;
35606;SDS011;21729;58.392;15.656;2023-04-15T07:10:41;4.60;;;2.73;;
35606;SDS011;21729;58.392;15.656;2023-04-15T07:13:08;7.10;;;2.70;;
35606;SDS011;21729;58.392;15.656;2023-04-15T07:15:36;4.05;;;2.53;;
35606;SDS011;21729;58.392;15.656;2023-04-15T07:18:03;5.38;;;2.65;;
35606;SDS011;21729;58.392;15.656;2023-04-15T07:20:30;4.77;;;2.80;;
35606;SDS011;21729;58.392;15.656;2023-04-15T07:22:57;5.75;;;2.80;;
35606;SDS011;21729;58.392;15.656;2023-04-15T07:25:25;4.65;;;2.65;;
35606;SDS011;21729;58.392;15.656;2023-04-15T07:27:53;7.20;;;2.72;;
35606;SDS011;21729;58.392;15.656;2023-04-15T07:30:21;4.70;;;2.45;;
35606;SDS011;21729;58.392;15.656;2023-04-15T07:32:48;6.15;;;2.72;;
35606;SDS011;21729;58.392;15.656;2023-04-15T07:35:15;7.18;;;2.60;;
35606;SDS011;21729;58.392;15.656;2023-04-15T07:37:45;6.80;;;2.85;;
35606;SDS011;21729;58.392;15.656;2023-04-15T07:40:13;4.75;;;2.53;;
35606;SDS011;21729;58.392;15.656;2023-04-15T07:42:40;6.03;;;2.78;;
35606;SDS011;21729;58.392;15.656;2023-04-15T07:45:09;6.90;;;3.05;;
35606;SDS011;21729;58.392;15.656;2023-04-15T07:47:38;5.32;;;3.00;;
35606;SDS011;21729;58.392;15.656;2023-04-15T07:50:06;7.15;;;2.85;;
35606;SDS011;21729;58.392;15.656;2023-04-15T07:52:34;5.80;;;2.90;;
35606;SDS011;21729;58.392;15.656;2023-04-15T07:55:04;5.03;;;2.53;;
35606;SDS011;21729;58.392;15.656;2023-04-15T07:57:32;5.80;;;2.78;;
35606;SDS011;21729;58.392;15.656;2023-04-15T07:59:59;5.38;;;2.80;;
35606;SDS011;21729;58.392;15.656;2023-04-15T08:02:29;5.50;;;2.67;;
35606;SDS011;21729;58.392;15.656;2023-04-15T08:04:56;6.63;;;2.88;;
35606;SDS011;21729;58.392;15.656;2023-04-15T08:07:23;5.50;;;2.90;;
35606;SDS011;21729;58.392;15.656;2023-04-15T08:09:51;4.60;;;2.45;;
35606;SDS011;21729;58.392;15.656;2023-04-15T08:12:18;5.60;;;2.58;;
35606;SDS011;21729;58.392;15.656;2023-04-15T08:14:45;6.82;;;2.30;;
35606;SDS011;21729;58.392;15.656;2023-04-15T08:17:13;4.07;;;2.50;;
35606;SDS011;21729;58.392;15.656;2023-04-15T08:19:41;5.30;;;2.65;;
35606;SDS011;21729;58.392;15.656;2023-04-15T08:22:09;3.08;;;1.85;;
35606;SDS011;21729;58.392;15.656;2023-04-15T08:24:36;4.55;;;2.13;;
35606;SDS011;21729;58.392;15.656;2023-04-15T08:27:03;7.20;;;2.53;;
35606;SDS011;21729;58.392;15.656;2023-04-15T08:29:32;5.30;;;2.22;;
35606;SDS011;21729;58.392;15.656;2023-04-15T08:31:59;4.88;;;2.30;;
35606;SDS011;21729;58.392;15.656;2023-04-15T08:34:26;5.68;;;2.35;;
35606;SDS011;21729;58.392;15.656;2023-04-15T08:36:56;3.90;;;2.30;;
35606;SDS011;21729;58.392;15.656;2023-04-15T08:39:23;4.50;;;2.25;;
35606;SDS011;21729;58.392;15.656;2023-04-15T08:41:51;3.60;;;2.10;;
35606;SDS011;21729;58.392;15.656;2023-04-15T08:44:25;5.47;;;2.30;;
35606;SDS011;21729;58.392;15.656;2023-04-15T08:46:56;4.95;;;2.50;;
35606;SDS011;21729;58.392;15.656;2023-04-15T08:49:27;3.90;;;2.60;;
35606;SDS011;21729;58.392;15.656;2023-04-15T08:51:57;5.43;;;2.58;;
35606;SDS011;21729;58.392;15.656;2023-04-15T08:54:25;4.30;;;2.30;;
35606;SDS011;21729;58.392;15.656;2023-04-15T08:56:53;7.88;;;2.58;;
35606;SDS011;21729;58.392;15.656;2023-04-15T08:59:21;5.30;;;2.33;;
35606;SDS011;21729;58.392;15.656;2023-04-15T09:01:49;5.70;;;2.33;;
35606;SDS011;21729;58.392;15.656;2023-04-15T09:04:17;6.47;;;2.53;;
35606;SDS011;21729;58.392;15.656;2023-04-15T09:06:45;4.90;;;2.50;;
35606;SDS011;21729;58.392;15.656;2023-04-15T09:09:16;3.95;;;2.10;;
35606;SDS011;21729;58.392;15.656;2023-04-15T09:11:43;4.32;;;2.10;;
35606;SDS011;21729;58.392;15.656;2023-04-15T09:14:10;4.03;;;2.03;;
35606;SDS011;21729;58.392;15.656;2023-04-15T09:16:56;2.50;;;2.00;;
35606;SDS011;21729;58.392;15.656;2023-04-15T09:19:24;3.88;;;2.10;;
35606;SDS011;21729;58.392;15.656;2023-04-15T09:21:52;5.70;;;2.40;;
35606;SDS011;21729;58.392;15.656;2023-04-15T09:24:22;5.18;;;2.30;;
35606;SDS011;21729;58.392;15.656;2023-04-15T09:26:51;3.33;;;2.20;;
35606;SDS011;21729;58.392;15.656;2023-04-15T09:29:19;3.33;;;2.20;;
35606;SDS011;21729;58.392;15.656;2023-04-15T09:31:50;3.90;;;2.40;;
35606;SDS011;21729;58.392;15.656;2023-04-15T09:34:17;3.72;;;2.20;;
35606;SDS011;21729;58.392;15.656;2023-04-15T09:36:51;6.43;;;2.40;;
35606;SDS011;21729;58.392;15.656;2023-04-15T09:39:19;5.25;;;2.28;;
35606;SDS011;21729;58.392;15.656;2023-04-15T09:42:02;4.63;;;2.35;;
35606;SDS011;21729;58.392;15.656;2023-04-15T09:44:31;2.67;;;2.05;;
35606;SDS011;21729;58.392;15.656;2023-04-15T09:46:59;2.97;;;2.42;;
35606;SDS011;21729;58.392;15.656;2023-04-15T09:49:26;3.20;;;2.40;;
35606;SDS011;21729;58.392;15.656;2023-04-15T09:51:56;4.60;;;2.05;;
35606;SDS011;21729;58.392;15.656;2023-04-15T09:54:32;4.10;;;2.30;;
35606;SDS011;21729;58.392;15.656;2023-04-15T09:57:04;3.25;;;2.17;;
35606;SDS011;21729;58.392;15.656;2023-04-15T09:59:32;4.80;;;2.15;;
35606;SDS011;21729;58.392;15.656;2023-04-15T10:01:59;4.47;;;2.13;;
35606;SDS011;21729;58.392;15.656;2023-04-15T10:04:29;3.35;;;2.22;;
35606;SDS011;21729;58.392;15.656;2023-04-15T10:06:58;4.33;;;2.40;;
35606;SDS011;21729;58.392;15.656;2023-04-15T10:09:26;4.40;;;2.30;;
35606;SDS011;21729;58.392;15.656;2023-04-15T10:11:55;4.80;;;2.50;;
35606;SDS011;21729;58.392;15.656;2023-04-15T10:14:22;3.45;;;2.17;;
35606;SDS011;21729;58.392;15.656;2023-04-15T10:16:51;4.03;;;2.30;;
35606;SDS011;21729;58.392;15.656;2023-04-15T10:19:21;5.20;;;2.40;;
35606;SDS011;21729;58.392;15.656;2023-04-15T10:21:53;3.47;;;2.20;;
35606;SDS011;21729;58.392;15.656;2023-04-15T10:24:21;4.87;;;2.40;;
35606;SDS011;21729;58.392;15.656;2023-04-15T10:26:49;6.07;;;2.80;;
35606;SDS011;21729;58.392;15.656;2023-04-15T10:29:18;3.55;;;2.42;;
35606;SDS011;21729;58.392;15.656;2023-04-15T10:31:46;5.53;;;2.30;;
35606;SDS011;21729;58.392;15.656;2023-04-15T10:34:14;3.03;;;2.30;;
35606;SDS011;21729;58.392;15.656;2023-04-15T10:36:42;4.13;;;2.55;;
35606;SDS011;21729;58.392;15.656;2023-04-15T10:42:09;3.50;;;2.50;;
35606;SDS011;21729;58.392;15.656;2023-04-15T10:44:40;6.78;;;2.75;;
35606;SDS011;21729;58.392;15.656;2023-04-15T10:47:12;3.83;;;2.85;;
35606;SDS011;21729;58.392;15.656;2023-04-15T10:49:43;3.63;;;2.50;;
35606;SDS011;21729;58.392;15.656;2023-04-15T10:52:12;6.65;;;2.58;;
35606;SDS011;21729;58.392;15.656;2023-04-15T10:54:41;3.73;;;2.60;;
35606;SDS011;21729;58.392;15.656;2023-04-15T10:57:13;4.43;;;2.47;;
35606;SDS011;21729;58.392;15.656;2023-04-15T11:02:39;3.70;;;2.45;;
35606;SDS011;21729;58.392;15.656;2023-04-15T11:05:07;4.85;;;2.63;;
35606;SDS011;21729;58.392;15.656;2023-04-15T11:07:35;4.50;;;2.50;;
35606;SDS011;21729;58.392;15.656;2023-04-15T11:10:05;5.50;;;2.60;;
35606;SDS011;21729;58.392;15.656;2023-04-15T11:13:23;7.00;;;2.65;;
35606;SDS011;21729;58.392;15.656;2023-04-15T11:15:59;4.50;;;2.50;;
35606;SDS011;21729;58.392;15.656;2023-04-15T11:18:31;3.83;;;2.55;;
35606;SDS011;21729;58.392;15.656;2023-04-15T11:21:00;3.00;;;2.40;;
35606;SDS011;21729;58.392;15.656;2023-04-15T11:23:30;3.73;;;2.50;;
35606;SDS011;21729;58.392;15.656;2023-04-15T11:25:58;4.47;;;2.58;;
35606;SDS011;21729;58.392;15.656;2023-04-15T11:28:27;2.92;;;2.40;;
35606;SDS011;21729;58.392;15.656;2023-04-15T11:30:55;4.28;;;2.55;;
35606;SDS011;21729;58.392;15.656;2023-04-15T11:33:24;3.92;;;2.17;;
35606;SDS011;21729;58.392;15.656;2023-04-15T11:35:51;2.88;;;2.30;;
35606;SDS011;21729;58.392;15.656;2023-04-15T11:38:19;3.35;;;2.50;;
35606;SDS011;21729;58.392;15.656;2023-04-15T11:40:47;2.85;;;2.10;;
35606;SDS011;21729;58.392;15.656;2023-04-15T11:43:16;3.33;;;2.28;;
35606;SDS011;21729;58.392;15.656;2023-04-15T11:45:49;2.88;;;2.28;;
35606;SDS011;21729;58.392;15.656;2023-04-15T11:48:18;4.70;;;2.47;;
35606;SDS011;21729;58.392;15.656;2023-04-15T11:50:52;4.95;;;2.55;;
35606;SDS011;21729;58.392;15.656;2023-04-15T11:53:20;5.43;;;2.88;;
35606;SDS011;21729;58.392;15.656;2023-04-15T11:55:49;2.88;;;2.30;;
35606;SDS011;21729;58.392;15.656;2023-04-15T11:58:18;3.88;;;2.35;;
35606;SDS011;21729;58.392;15.656;2023-04-15T12:00:46;3.93;;;2.60;;
35606;SDS011;21729;58.392;15.656;2023-04-15T12:03:19;4.53;;;2.42;;
35606;SDS011;21729;58.392;15.656;2023-04-15T12:08:54;3.40;;;2.60;;
35606;SDS011;21729;58.392;15.656;2023-04-15T12:11:27;3.63;;;2.53;;
35606;SDS011;21729;58.392;15.656;2023-04-15T12:14:03;4.72;;;2.70;;
35606;SDS011;21729;58.392;15.656;2023-04-15T12:16:32;4.25;;;2.38;;
35606;SDS011;21729;58.392;15.656;2023-04-15T12:19:04;5.05;;;2.90;;
35606;SDS011;21729;58.392;15.656;2023-04-15T12:21:35;3.30;;;2.50;;
35606;SDS011;21729;58.392;15.656;2023-04-15T12:24:04;4.18;;;2.80;;
35606;SDS011;21729;58.392;15.656;2023-04-15T12:26:34;4.55;;;2.60;;
35606;SDS011;21729;58.392;15.656;2023-04-15T12:29:02;8.70;;;2.60;;
35606;SDS011;21729;58.392;15.656;2023-04-15T12:31:31;3.33;;;2.50;;
35606;SDS011;21729;58.392;15.656;2023-04-15T12:33:59;4.13;;;2.60;;
35606;SDS011;21729;58.392;15.656;2023-04-15T12:36:27;2.95;;;2.45;;
35606;SDS011;21729;58.392;15.656;2023-04-15T12:38:57;4.47;;;2.63;;
35606;SDS011;21729;58.392;15.656;2023-04-15T12:41:24;5.60;;;2.75;;
35606;SDS011;21729;58.392;15.656;2023-04-15T12:43:51;4.50;;;2.78;;
35606;SDS011;21729;58.392;15.656;2023-04-15T12:46:18;5.03;;;2.60;;
35606;SDS011;21729;58.392;15.656;2023-04-15T12:48:45;3.17;;;2.72;;
35606;SDS011;21729;58.392;15.656;2023-04-15T12:51:12;2.95;;;2.40;;
35606;SDS011;21729;58.392;15.656;2023-04-15T12:53:40;4.90;;;2.60;;
35606;SDS011;21729;58.392;15.656;2023-04-15T12:56:08;4.63;;;2.88;;
35606;SDS011;21729;58.392;15.656;2023-04-15T12:58:35;3.30;;;2.50;;
35606;SDS011;21729;58.392;15.656;2023-04-15T13:01:02;3.70;;;2.50;;
35606;SDS011;21729;58.392;15.656;2023-04-15T13:03:30;3.03;;;2.63;;
35606;SDS011;21729;58.392;15.656;2023-04-15T13:05:57;3.47;;;2.97;;
35606;SDS011;21729;58.392;15.656;2023-04-15T13:08:26;4.53;;;3.10;;
35606;SDS011;21729;58.392;15.656;2023-04-15T13:10:53;3.30;;;2.78;;
35606;SDS011;21729;58.392;15.656;2023-04-15T13:13:22;4.28;;;2.65;;
35606;SDS011;21729;58.392;15.656;2023-04-15T13:15:49;6.85;;;2.80;;
35606;SDS011;21729;58.392;15.656;2023-04-15T13:18:16;6.47;;;2.85;;
35606;SDS011;21729;58.392;15.656;2023-04-15T13:20:43;3.78;;;2.58;;
35606;SDS011;21729;58.392;15.656;2023-04-15T13:23:10;4.82;;;3.22;;
35606;SDS011;21729;58.392;15.656;2023-04-15T13:25:37;3.90;;;2.83;;
35606;SDS011;21729;58.392;15.656;2023-04-15T13:28:05;4.88;;;2.90;;
35606;SDS011;21729;58.392;15.656;2023-04-15T13:30:36;3.28;;;2.90;;
35606;SDS011;21729;58.392;15.656;2023-04-15T13:33:03;3.33;;;2.40;;
35606;SDS011;21729;58.392;15.656;2023-04-15T13:35:30;5.38;;;2.85;;
35606;SDS011;21729;58.392;15.656;2023-04-15T13:37:58;3.03;;;2.58;;
35606;SDS011;21729;58.392;15.656;2023-04-15T13:40:25;5.07;;;3.10;;
35606;SDS011;21729;58.392;15.656;2023-04-15T13:42:52;4.50;;;2.90;;
35606;SDS011;21729;58.392;15.656;2023-04-15T13:45:19;3.97;;;2.70;;
35606;SDS011;21729;58.392;15.656;2023-04-15T13:47:47;5.18;;;3.20;;
35606;SDS011;21729;58.392;15.656;2023-04-15T13:50:14;5.13;;;3.10;;
35606;SDS011;21729;58.392;15.656;2023-04-15T13:52:41;4.00;;;2.80;;
35606;SDS011;21729;58.392;15.656;2023-04-15T13:55:09;4.10;;;2.42;;
35606;SDS011;21729;58.392;15.656;2023-04-15T13:57:36;5.20;;;3.37;;
35606;SDS011;21729;58.392;15.656;2023-04-15T14:00:04;4.20;;;3.17;;
35606;SDS011;21729;58.392;15.656;2023-04-15T14:02:32;4.30;;;3.10;;
35606;SDS011;21729;58.392;15.656;2023-04-15T14:05:00;3.67;;;3.10;;
35606;SDS011;21729;58.392;15.656;2023-04-15T14:07:27;5.40;;;3.17;;
35606;SDS011;21729;58.392;15.656;2023-04-15T14:09:55;5.70;;;2.92;;
35606;SDS011;21729;58.392;15.656;2023-04-15T14:12:22;5.90;;;3.20;;
35606;SDS011;21729;58.392;15.656;2023-04-15T14:14:49;3.38;;;3.05;;
35606;SDS011;21729;58.392;15.656;2023-04-15T14:17:16;4.72;;;3.33;;
35606;SDS011;21729;58.392;15.656;2023-04-15T14:19:44;3.42;;;2.97;;
35606;SDS011;21729;58.392;15.656;2023-04-15T14:22:12;5.25;;;3.35;;
35606;SDS011;21729;58.392;15.656;2023-04-15T14:24:39;5.15;;;3.25;;
35606;SDS011;21729;58.392;15.656;2023-04-15T14:27:06;4.30;;;2.80;;
35606;SDS011;21729;58.392;15.656;2023-04-15T14:29:35;4.20;;;3.10;;
35606;SDS011;21729;58.392;15.656;2023-04-15T14:32:02;3.83;;;3.03;;
35606;SDS011;21729;58.392;15.656;2023-04-15T14:34:29;5.93;;;3.40;;
35606;SDS011;21729;58.392;15.656;2023-04-15T14:36:56;4.50;;;2.95;;
35606;SDS011;21729;58.392;15.656;2023-04-15T14:39:25;5.32;;;3.15;;
35606;SDS011;21729;58.392;15.656;2023-04-15T14:41:52;3.75;;;3.30;;
35606;SDS011;21729;58.392;15.656;2023-04-15T14:44:20;4.13;;;3.33;;
35606;SDS011;21729;58.392;15.656;2023-04-15T14:46:48;3.70;;;3.05;;
35606;SDS011;21729;58.392;15.656;2023-04-15T14:49:16;4.35;;;3.03;;